Time;durP1;ratioP1;P1;durP2;ratioP2;P2;SDS_P1;SDS_P2;PMS_P1;PMS_P2;Temp;Humidity;BMP_temperature;BMP_pressure;BME280_temperature;BME280_humidity;BME280_pressure;Samples;Min_cycle;Max_cycle;Signal;HPM_P1;HPM_P2
2023/12/25 00:01:33;;;;;;;38.13;22.97;;;5.90;92.80;;;;;;5078907;28;20304;-62
2023/12/25 00:04:01;;;;;;;43.77;25.57;;;5.90;92.80;;;;;;5082645;28;20283;-62
2023/12/25 00:06:28;;;;;;;40.97;23.30;;;5.90;92.90;;;;;;5084112;28;20209;-62
2023/12/25 00:08:55;;;;;;;40.17;23.00;;;5.90;93.00;;;;;;5082054;28;20297;-61
2023/12/25 00:11:22;;;;;;;35.10;22.83;;;5.90;93.00;;;;;;5081577;28;20213;-62
2023/12/25 00:13:52;;;;;;;33.07;21.77;;;5.90;93.00;;;;;;5080053;28;20217;-61
2023/12/25 00:16:19;;;;;;;34.20;21.50;;;5.80;93.00;;;;;;5084146;28;20205;-61
2023/12/25 00:18:46;;;;;;;38.47;22.47;;;5.80;93.00;;;;;;5087956;28;20193;-61
2023/12/25 00:21:13;;;;;;;41.30;24.00;;;5.80;93.00;;;;;;5087201;28;20201;-61
2023/12/25 00:23:40;;;;;;;39.47;25.30;;;5.80;93.00;;;;;;5082362;28;20651;-61
2023/12/25 00:26:08;;;;;;;41.60;23.17;;;5.70;93.00;;;;;;5077931;28;20240;-62
2023/12/25 00:28:36;;;;;;;41.90;22.87;;;5.80;93.10;;;;;;5079715;28;20201;-61
2023/12/25 00:31:05;;;;;;;40.77;22.23;;;5.70;93.10;;;;;;5087707;28;20194;-60
2023/12/25 00:33:32;;;;;;;41.17;22.67;;;5.70;93.10;;;;;;5078968;28;20210;-62
2023/12/25 00:35:59;;;;;;;41.03;22.27;;;5.70;93.40;;;;;;5082562;28;20730;-61
2023/12/25 00:38:26;;;;;;;39.53;21.63;;;5.70;93.10;;;;;;5083234;28;20198;-61
2023/12/25 00:40:54;;;;;;;33.23;19.93;;;5.70;93.00;;;;;;5083418;28;20204;-61
2023/12/25 00:43:21;;;;;;;38.90;21.27;;;5.60;93.00;;;;;;5083623;28;20210;-62
2023/12/25 00:45:51;;;;;;;34.57;20.77;;;5.60;93.00;;;;;;5078965;28;20216;-61
2023/12/25 00:48:18;;;;;;;47.17;24.03;;;5.60;93.00;;;;;;5082348;28;20205;-61
2023/12/25 00:50:46;;;;;;;32.40;20.73;;;5.50;92.90;;;;;;5084785;28;20208;-61
2023/12/25 00:53:13;;;;;;;35.83;21.07;;;5.50;92.90;;;;;;5083882;28;20214;-62
2023/12/25 00:55:40;;;;;;;40.43;20.80;;;5.50;93.00;;;;;;5067081;28;20206;-61
2023/12/25 00:58:07;;;;;;;36.47;22.23;;;5.50;93.00;;;;;;5083423;28;20270;-61
2023/12/25 01:00:34;;;;;;;36.37;21.47;;;5.50;93.00;;;;;;5084211;28;20631;-61
2023/12/25 01:03:02;;;;;;;46.27;25.20;;;5.40;93.00;;;;;;5085027;28;20248;-61
2023/12/25 01:05:29;;;;;;;35.03;20.27;;;5.50;93.00;;;;;;5078222;28;20292;-62
2023/12/25 01:07:57;;;;;;;29.03;18.17;;;5.40;93.00;;;;;;5083079;28;20277;-61
2023/12/25 01:10:24;;;;;;;37.30;20.23;;;5.40;93.10;;;;;;5088935;28;20556;-62
2023/12/25 01:12:51;;;;;;;28.43;19.67;;;5.40;93.00;;;;;;5082341;28;20583;-61
2023/12/25 01:15:18;;;;;;;34.90;23.13;;;5.40;93.00;;;;;;5092216;28;20196;-62
2023/12/25 01:17:45;;;;;;;31.17;19.17;;;5.40;93.10;;;;;;5082864;28;20265;-61
2023/12/25 01:20:12;;;;;;;34.20;19.30;;;5.40;93.00;;;;;;5083683;28;20291;-61
2023/12/25 01:22:39;;;;;;;39.50;23.13;;;5.30;92.90;;;;;;5083640;28;20239;-61
2023/12/25 01:25:07;;;;;;;43.17;25.10;;;5.30;92.70;;;;;;5091450;28;20206;-61
2023/12/25 01:27:35;;;;;;;34.17;20.30;;;5.30;92.80;;;;;;5083465;28;20991;-61
2023/12/25 01:30:03;;;;;;;37.47;22.43;;;5.20;92.80;;;;;;5074718;28;20202;-61
2023/12/25 01:32:30;;;;;;;37.33;23.23;;;5.20;92.90;;;;;;5089290;28;20208;-62
2023/12/25 01:34:57;;;;;;;39.50;22.93;;;5.20;93.00;;;;;;5090563;28;20300;-62
2023/12/25 01:37:24;;;;;;;38.07;23.43;;;5.10;92.90;;;;;;5083709;28;20225;-62
2023/12/25 01:39:51;;;;;;;35.00;21.83;;;5.10;93.00;;;;;;5080125;28;20208;-62
2023/12/25 01:42:18;;;;;;;41.90;20.37;;;5.10;93.20;;;;;;5082694;28;20530;-62
2023/12/25 01:44:47;;;;;;;34.07;18.93;;;5.00;93.20;;;;;;5085343;28;20198;-62
2023/12/25 01:47:17;;;;;;;34.47;21.27;;;5.00;93.20;;;;;;5084734;28;20282;-62
2023/12/25 01:49:45;;;;;;;36.60;20.53;;;5.00;93.10;;;;;;5082981;28;20654;-61
2023/12/25 01:52:12;;;;;;;33.13;21.67;;;4.90;93.10;;;;;;5086472;28;20201;-61
2023/12/25 01:54:40;;;;;;;31.33;19.97;;;4.80;93.10;;;;;;5082549;28;20316;-61
2023/12/25 01:57:08;;;;;;;35.27;21.53;;;4.80;93.10;;;;;;5083070;28;20222;-61
2023/12/25 01:59:36;;;;;;;35.40;21.20;;;4.80;93.20;;;;;;5097636;28;20255;-61
2023/12/25 02:02:03;;;;;;;43.03;22.10;;;4.80;93.30;;;;;;5083255;28;20236;-61
2023/12/25 02:04:30;;;;;;;41.97;24.23;;;4.80;93.20;;;;;;5081560;28;20259;-61
2023/12/25 02:06:59;;;;;;;34.83;21.10;;;4.80;93.20;;;;;;5081368;28;20214;-61
2023/12/25 02:09:27;;;;;;;38.37;22.57;;;4.70;93.30;;;;;;5083518;28;20205;-62
2023/12/25 02:11:54;;;;;;;31.07;18.60;;;4.70;93.40;;;;;;5081847;28;20402;-62
2023/12/25 02:14:23;;;;;;;31.40;19.83;;;4.70;93.50;;;;;;5079989;28;20219;-62
2023/12/25 02:16:52;;;;;;;34.23;20.40;;;4.70;93.50;;;;;;5079965;28;20246;-62
2023/12/25 02:19:39;;;;;;;34.13;20.20;;;4.70;93.50;;;;;;5079014;28;20624;-62
2023/12/25 02:22:07;;;;;;;37.60;21.50;;;4.70;93.50;;;;;;5080958;28;20279;-61
2023/12/25 02:24:37;;;;;;;37.37;21.30;;;4.70;93.50;;;;;;5077731;28;20205;-61
2023/12/25 02:27:05;;;;;;;32.83;19.80;;;4.70;93.50;;;;;;5077600;28;20439;-62
2023/12/25 02:29:34;;;;;;;34.03;20.93;;;4.70;93.50;;;;;;5077855;28;20573;-62
2023/12/25 02:32:01;;;;;;;32.00;19.27;;;4.70;93.50;;;;;;5076038;28;20193;-62
2023/12/25 02:34:28;;;;;;;31.73;19.73;;;4.70;93.40;;;;;;5079470;28;20248;-62
2023/12/25 02:36:55;;;;;;;26.80;17.77;;;4.60;93.30;;;;;;5089763;28;20204;-62
2023/12/25 02:39:23;;;;;;;39.30;20.90;;;4.60;93.30;;;;;;5078761;28;20271;-62
2023/12/25 02:41:50;;;;;;;28.00;19.60;;;4.60;93.20;;;;;;5080043;28;20194;-61
2023/12/25 02:44:18;;;;;;;38.43;20.73;;;4.60;93.20;;;;;;5079285;28;20215;-62
2023/12/25 02:46:45;;;;;;;40.13;21.83;;;4.50;93.20;;;;;;5080653;28;20686;-62
2023/12/25 02:49:12;;;;;;;49.23;23.83;;;4.50;93.30;;;;;;5087110;28;20293;-61
2023/12/25 02:51:39;;;;;;;38.93;22.97;;;4.50;93.40;;;;;;5087675;28;20216;-61
2023/12/25 02:54:06;;;;;;;38.67;22.43;;;4.50;93.50;;;;;;5103302;27;20263;-61
2023/12/25 02:56:33;;;;;;;35.27;22.57;;;4.60;93.60;;;;;;5085808;28;20204;-61
2023/12/25 02:59:00;;;;;;;30.70;20.37;;;4.50;93.60;;;;;;5084794;28;20219;-61
2023/12/25 03:01:27;;;;;;;33.20;20.57;;;4.50;93.90;;;;;;5086035;28;20301;-61
2023/12/25 03:03:54;;;;;;;37.50;22.23;;;4.60;93.60;;;;;;5084161;28;20227;-61
2023/12/25 03:06:21;;;;;;;32.33;20.83;;;4.50;93.60;;;;;;5085664;28;20306;-61
2023/12/25 03:08:50;;;;;;;40.23;21.40;;;4.50;93.60;;;;;;5083403;28;20212;-61
2023/12/25 03:11:17;;;;;;;33.73;19.57;;;4.50;93.60;;;;;;5085440;28;20228;-62
2023/12/25 03:13:44;;;;;;;30.63;20.13;;;4.60;93.60;;;;;;5089196;28;20528;-62
2023/12/25 03:16:11;;;;;;;35.13;20.83;;;4.50;93.50;;;;;;5084288;28;20228;-62
2023/12/25 03:18:39;;;;;;;33.57;19.93;;;4.50;93.50;;;;;;5091855;28;20677;-61
2023/12/25 03:21:07;;;;;;;30.57;18.20;;;4.50;93.60;;;;;;5082804;28;20192;-61
2023/12/25 03:23:34;;;;;;;32.30;19.23;;;4.40;93.50;;;;;;5089774;28;20208;-62
2023/12/25 03:26:02;;;;;;;33.23;20.00;;;4.50;93.50;;;;;;5083640;28;20219;-62
2023/12/25 03:28:29;;;;;;;38.00;22.40;;;4.40;93.40;;;;;;5086234;28;20255;-61
2023/12/25 03:30:56;;;;;;;37.80;21.73;;;4.40;93.40;;;;;;5090162;28;20204;-61
2023/12/25 03:33:24;;;;;;;33.93;21.30;;;4.40;93.50;;;;;;5079200;28;20236;-62
2023/12/25 03:35:51;;;;;;;36.47;19.90;;;4.40;93.60;;;;;;5084216;28;20231;-62
2023/12/25 03:38:18;;;;;;;35.83;20.60;;;4.40;93.60;;;;;;5083662;28;20198;-62
2023/12/25 03:40:45;;;;;;;32.37;21.20;;;4.40;93.70;;;;;;5079657;28;20212;-61
2023/12/25 03:43:12;;;;;;;35.90;20.87;;;4.40;93.70;;;;;;5080949;28;20259;-61
2023/12/25 03:45:40;;;;;;;31.17;19.53;;;4.40;93.80;;;;;;5083805;28;20195;-61
2023/12/25 03:48:07;;;;;;;37.27;19.13;;;4.50;93.90;;;;;;5089057;28;20209;-61
2023/12/25 03:50:34;;;;;;;38.97;21.80;;;4.50;93.90;;;;;;5087028;28;20232;-61
2023/12/25 03:53:01;;;;;;;34.03;20.53;;;4.50;94.00;;;;;;5082957;28;20638;-62
2023/12/25 03:55:28;;;;;;;35.10;18.80;;;4.50;94.10;;;;;;5093039;28;20229;-61
2023/12/25 03:57:56;;;;;;;30.43;18.97;;;4.60;94.20;;;;;;5081933;28;20197;-62
2023/12/25 04:00:23;;;;;;;29.30;19.70;;;4.60;94.20;;;;;;5082513;28;20194;-62
2023/12/25 04:02:50;;;;;;;35.57;20.03;;;4.60;94.20;;;;;;5082810;28;20245;-61
2023/12/25 04:05:18;;;;;;;32.30;19.63;;;4.60;94.30;;;;;;5097816;28;20240;-62
2023/12/25 04:07:45;;;;;;;36.13;19.60;;;4.60;94.40;;;;;;5083187;28;20601;-62
2023/12/25 04:10:13;;;;;;;32.97;20.43;;;4.60;94.40;;;;;;5085345;28;20261;-61
2023/12/25 04:12:40;;;;;;;32.33;19.50;;;4.60;94.40;;;;;;5084630;28;20521;-62
2023/12/25 04:15:08;;;;;;;39.43;21.37;;;4.60;94.50;;;;;;5082429;28;20221;-61
2023/12/25 04:17:36;;;;;;;41.17;20.10;;;4.60;94.40;;;;;;5082880;28;20201;-62
2023/12/25 04:20:04;;;;;;;37.00;20.33;;;4.60;94.40;;;;;;5081856;28;20650;-62
2023/12/25 04:22:31;;;;;;;33.10;20.10;;;4.60;94.40;;;;;;5085303;28;20201;-61
2023/12/25 04:24:58;;;;;;;32.77;19.30;;;4.60;94.50;;;;;;5084775;28;20203;-62
2023/12/25 04:27:26;;;;;;;35.77;20.27;;;4.50;94.60;;;;;;5087494;28;20312;-62
2023/12/25 04:29:54;;;;;;;34.67;19.43;;;4.60;94.70;;;;;;5076388;28;20308;-62
2023/12/25 04:32:21;;;;;;;33.07;19.27;;;4.50;94.70;;;;;;5088044;28;20201;-61
2023/12/25 04:34:48;;;;;;;31.53;18.53;;;4.60;94.80;;;;;;5080258;28;20697;-61
2023/12/25 04:37:15;;;;;;;37.97;20.70;;;4.50;94.80;;;;;;5086111;28;20204;-62
2023/12/25 04:39:43;;;;;;;29.67;17.50;;;4.50;94.80;;;;;;5080465;28;20213;-62
2023/12/25 04:42:10;;;;;;;36.03;17.40;;;4.60;94.90;;;;;;5079214;28;20269;-60
2023/12/25 04:44:37;;;;;;;26.27;17.27;;;4.50;94.80;;;;;;5081743;28;20208;-62
2023/12/25 04:47:04;;;;;;;39.67;19.30;;;4.50;94.80;;;;;;5086278;28;20266;-61
2023/12/25 04:49:32;;;;;;;37.57;19.43;;;4.50;94.80;;;;;;5081562;28;20215;-62
2023/12/25 04:51:59;;;;;;;36.03;18.10;;;4.50;94.80;;;;;;5083095;28;20216;-61
2023/12/25 04:54:26;;;;;;;27.53;17.47;;;4.50;94.80;;;;;;5082815;28;20225;-61
2023/12/25 04:56:56;;;;;;;27.10;15.03;;;4.50;94.70;;;;;;5084882;28;20196;-61
2023/12/25 04:59:24;;;;;;;33.07;18.27;;;4.50;94.60;;;;;;5080010;28;20198;-61
2023/12/25 05:01:53;;;;;;;25.47;15.80;;;4.50;94.50;;;;;;5086038;28;20233;-62
2023/12/25 05:04:21;;;;;;;31.80;16.70;;;4.40;94.50;;;;;;5077704;28;20203;-61
2023/12/25 05:06:49;;;;;;;31.23;17.57;;;4.40;94.50;;;;;;5083491;28;20228;-61
2023/12/25 05:09:16;;;;;;;31.63;16.73;;;4.50;94.50;;;;;;5084758;28;20208;-62
2023/12/25 05:11:44;;;;;;;29.20;17.37;;;4.50;94.50;;;;;;5088939;28;20205;-61
2023/12/25 05:14:12;;;;;;;29.80;17.73;;;4.50;94.50;;;;;;5083954;28;20681;-61
2023/12/25 05:16:40;;;;;;;32.73;18.10;;;4.50;94.60;;;;;;5083619;28;20201;-61
2023/12/25 05:19:10;;;;;;;28.63;17.33;;;4.50;94.50;;;;;;5085662;28;20216;-61
2023/12/25 05:21:37;;;;;;;29.90;17.07;;;4.50;94.50;;;;;;5084589;28;20262;-61
2023/12/25 05:24:04;;;;;;;28.77;17.13;;;4.50;94.50;;;;;;5086268;28;20229;-61
2023/12/25 05:26:32;;;;;;;35.37;18.00;;;4.50;94.50;;;;;;5083567;28;20232;-62
2023/12/25 05:28:59;;;;;;;32.40;18.23;;;4.50;94.50;;;;;;5083404;28;20200;-62
2023/12/25 05:31:26;;;;;;;38.17;20.43;;;4.60;94.60;;;;;;5082715;28;20655;-61
2023/12/25 05:33:53;;;;;;;35.40;20.27;;;4.60;94.70;;;;;;5087304;28;20201;-62
2023/12/25 05:36:20;;;;;;;34.30;19.47;;;4.60;94.70;;;;;;5076100;28;20204;-61
2023/12/25 05:38:47;;;;;;;33.70;19.63;;;4.70;94.80;;;;;;5086481;28;20192;-61
2023/12/25 05:41:32;;;;;;;32.50;18.57;;;4.70;94.80;;;;;;5081784;28;20228;-61
2023/12/25 05:43:59;;;;;;;31.17;18.60;;;4.70;94.80;;;;;;5080997;28;20558;-62
2023/12/25 05:46:26;;;;;;;32.87;18.97;;;4.60;94.80;;;;;;5083582;28;20255;-62
2023/12/25 05:48:53;;;;;;;36.83;19.63;;;4.60;94.80;;;;;;5079016;28;20552;-61
2023/12/25 05:51:21;;;;;;;31.83;17.97;;;4.60;94.80;;;;;;5083622;28;20201;-61
2023/12/25 05:53:48;;;;;;;38.43;19.70;;;4.50;94.90;;;;;;5083269;28;20200;-61
2023/12/25 05:56:15;;;;;;;43.20;19.03;;;4.50;95.00;;;;;;5080834;28;20280;-61
2023/12/25 05:58:42;;;;;;;31.13;18.07;;;4.50;95.00;;;;;;5078185;28;20216;-62
2023/12/25 06:01:12;;;;;;;28.57;17.27;;;4.50;95.10;;;;;;5083640;28;20524;-62
2023/12/25 06:03:40;;;;;;;30.97;18.47;;;4.50;95.10;;;;;;5081867;28;20209;-62
2023/12/25 06:06:07;;;;;;;34.30;17.00;;;4.40;94.80;;;;;;5081630;28;20211;-61
2023/12/25 06:08:35;;;;;;;29.20;18.50;;;4.30;94.60;;;;;;5082425;28;20200;-61
2023/12/25 06:11:02;;;;;;;36.63;18.80;;;4.30;94.60;;;;;;5080168;28;20200;-61
2023/12/25 06:13:29;;;;;;;34.43;17.93;;;4.20;94.70;;;;;;5080106;28;20200;-61
2023/12/25 06:15:56;;;;;;;34.87;18.43;;;4.20;94.80;;;;;;5082043;28;20212;-62
2023/12/25 06:18:23;;;;;;;32.10;18.40;;;4.20;95.00;;;;;;5082912;28;20198;-61
2023/12/25 06:20:50;;;;;;;28.03;17.40;;;4.20;95.10;;;;;;5081236;28;20559;-61
2023/12/25 06:23:18;;;;;;;30.10;17.67;;;4.20;95.20;;;;;;5085647;28;20618;-62
2023/12/25 06:25:46;;;;;;;31.07;18.70;;;4.20;95.30;;;;;;5079649;28;20212;-62
2023/12/25 06:28:13;;;;;;;40.10;18.97;;;4.20;95.30;;;;;;5083176;28;20247;-62
2023/12/25 06:30:40;;;;;;;29.67;18.67;;;4.30;95.40;;;;;;5078635;28;20219;-62
2023/12/25 06:33:07;;;;;;;30.33;17.90;;;4.30;95.40;;;;;;5078546;28;20255;-61
2023/12/25 06:35:34;;;;;;;27.20;17.87;;;4.30;95.50;;;;;;5076678;28;20240;-61
2023/12/25 06:38:01;;;;;;;29.97;16.93;;;4.30;95.60;;;;;;5077806;28;20279;-61
2023/12/25 06:40:28;;;;;;;32.20;18.00;;;4.30;95.60;;;;;;5085288;28;20197;-61
2023/12/25 06:42:55;;;;;;;30.80;18.53;;;4.30;95.60;;;;;;5085988;28;20232;-61
2023/12/25 06:45:26;;;;;;;25.60;18.10;;;4.30;95.60;;;;;;5077919;28;20197;-61
2023/12/25 06:47:53;;;;;;;35.57;19.00;;;4.30;95.60;;;;;;5081248;28;20554;-61
2023/12/25 06:50:21;;;;;;;32.33;18.83;;;4.30;95.60;;;;;;5081214;28;20201;-61
2023/12/25 06:52:48;;;;;;;37.17;18.17;;;4.30;95.70;;;;;;5080680;28;20215;-61
2023/12/25 06:55:16;;;;;;;32.97;17.80;;;4.30;95.70;;;;;;5082331;28;20213;-61
2023/12/25 06:57:43;;;;;;;28.30;15.70;;;4.40;95.70;;;;;;5083862;28;20192;-61
2023/12/25 07:00:11;;;;;;;25.20;15.57;;;4.30;95.70;;;;;;5079866;28;20199;-61
2023/12/25 07:02:38;;;;;;;27.40;15.70;;;4.30;95.70;;;;;;5080062;28;20323;-61
2023/12/25 07:05:06;;;;;;;26.47;16.00;;;4.30;95.60;;;;;;5085068;28;20211;-61
2023/12/25 07:07:33;;;;;;;27.23;15.57;;;4.30;95.50;;;;;;5081255;28;20208;-62
2023/12/25 07:10:00;;;;;;;25.90;17.20;;;4.30;95.40;;;;;;5078268;28;20205;-62
2023/12/25 07:12:27;;;;;;;31.13;15.67;;;4.30;95.40;;;;;;5079226;28;20200;-62
2023/12/25 07:14:55;;;;;;;25.80;15.63;;;4.20;95.30;;;;;;5079246;28;20302;-61
2023/12/25 07:17:23;;;;;;;26.53;15.27;;;4.20;95.30;;;;;;5084469;28;20523;-61
2023/12/25 07:19:50;;;;;;;20.67;14.73;;;4.20;95.30;;;;;;5086370;28;20209;-62
2023/12/25 07:22:17;;;;;;;23.90;15.30;;;4.20;95.40;;;;;;5084620;28;20542;-62
2023/12/25 07:24:44;;;;;;;23.17;14.93;;;4.30;95.50;;;;;;5084202;28;20515;-62
2023/12/25 07:27:11;;;;;;;25.90;15.23;;;4.40;95.60;;;;;;5083203;28;20542;-62
2023/12/25 07:29:39;;;;;;;28.20;15.13;;;4.40;95.70;;;;;;5080921;28;20558;-62
2023/12/25 07:32:06;;;;;;;24.27;15.43;;;4.50;95.80;;;;;;5083853;28;20205;-61
2023/12/25 07:34:34;;;;;;;28.80;15.00;;;4.60;95.80;;;;;;5084680;28;20209;-62
2023/12/25 07:37:02;;;;;;;26.70;15.93;;;4.70;95.80;;;;;;5084768;28;20186;-61
2023/12/25 07:39:30;;;;;;;27.73;15.17;;;4.80;95.80;;;;;;5081846;28;20193;-61
2023/12/25 07:41:58;;;;;;;30.17;16.17;;;4.90;95.80;;;;;;5086632;28;20579;-62
2023/12/25 07:44:26;;;;;;;27.97;14.83;;;4.90;95.80;;;;;;5081087;28;20208;-62
2023/12/25 07:46:53;;;;;;;26.17;13.83;;;5.00;95.80;;;;;;5085732;28;20196;-61
2023/12/25 07:49:21;;;;;;;24.77;15.03;;;5.10;95.80;;;;;;5085710;28;20197;-61
2023/12/25 07:51:49;;;;;;;23.43;14.80;;;5.20;95.80;;;;;;5082407;28;20297;-62
2023/12/25 07:54:16;;;;;;;26.47;15.63;;;5.20;95.90;;;;;;5084010;28;20189;-62
2023/12/25 07:56:43;;;;;;;28.37;15.83;;;5.30;95.90;;;;;;5089930;28;20218;-62
2023/12/25 07:59:10;;;;;;;23.50;14.13;;;5.30;95.80;;;;;;5079960;28;20227;-63
2023/12/25 08:01:37;;;;;;;32.73;16.37;;;5.30;95.80;;;;;;5082469;28;20236;-62
2023/12/25 08:04:04;;;;;;;28.43;14.00;;;5.40;95.90;;;;;;5084710;28;20683;-61
2023/12/25 08:06:31;;;;;;;24.97;15.00;;;5.50;95.90;;;;;;5084624;28;20208;-61
2023/12/25 08:08:58;;;;;;;22.13;13.83;;;5.50;95.90;;;;;;5083625;28;20701;-61
2023/12/25 08:11:27;;;;;;;24.73;14.73;;;5.60;95.90;;;;;;5084605;28;20214;-62
2023/12/25 08:13:54;;;;;;;21.43;13.00;;;5.70;95.90;;;;;;5077917;28;20221;-62
2023/12/25 08:16:21;;;;;;;26.40;15.53;;;5.80;95.80;;;;;;5082100;28;20217;-61
2023/12/25 08:18:48;;;;;;;23.10;14.37;;;5.80;95.80;;;;;;5084096;28;20194;-62
2023/12/25 08:21:17;;;;;;;19.97;13.37;;;5.90;95.80;;;;;;5082379;28;20538;-62
2023/12/25 08:23:44;;;;;;;23.97;15.13;;;6.00;95.80;;;;;;5089907;28;20677;-61
2023/12/25 08:26:11;;;;;;;28.03;14.83;;;6.20;95.80;;;;;;5086421;28;20205;-61
2023/12/25 08:28:40;;;;;;;31.40;15.37;;;6.30;95.80;;;;;;5082850;28;20536;-61
2023/12/25 08:31:07;;;;;;;26.03;14.03;;;6.40;95.60;;;;;;5085874;28;20207;-61
2023/12/25 08:33:35;;;;;;;25.63;13.50;;;6.50;95.50;;;;;;5083800;28;20581;-62
2023/12/25 08:36:03;;;;;;;28.73;14.27;;;6.60;95.40;;;;;;5077302;28;20237;-62
2023/12/25 08:38:31;;;;;;;22.37;13.07;;;6.70;95.40;;;;;;5078395;28;20190;-62
2023/12/25 08:41:00;;;;;;;23.27;13.03;;;6.80;95.40;;;;;;5077871;28;20209;-61
2023/12/25 08:43:27;;;;;;;19.10;12.47;;;6.90;95.30;;;;;;5084817;28;20191;-62
2023/12/25 08:45:54;;;;;;;23.70;12.43;;;7.00;95.30;;;;;;5079741;28;20235;-62
2023/12/25 08:48:21;;;;;;;20.13;12.27;;;7.10;95.20;;;;;;5082808;28;20209;-61
2023/12/25 08:50:50;;;;;;;20.87;11.50;;;7.20;95.20;;;;;;5082846;28;20556;-61
2023/12/25 08:53:17;;;;;;;20.70;10.73;;;7.30;95.10;;;;;;5085027;28;20198;-61
2023/12/25 08:55:44;;;;;;;20.53;9.97;;;7.50;95.20;;;;;;5069464;28;20225;-62
2023/12/25 08:58:11;;;;;;;20.27;10.57;;;7.60;95.10;;;;;;5085665;28;20595;-62
2023/12/25 09:00:38;;;;;;;16.17;9.77;;;7.70;95.10;;;;;;5078983;28;20206;-62
2023/12/25 09:03:06;;;;;;;18.47;9.13;;;7.80;95.00;;;;;;5079110;28;20292;-62
2023/12/25 09:05:33;;;;;;;17.47;9.03;;;7.90;95.00;;;;;;5079376;28;20285;-62
2023/12/25 09:08:01;;;;;;;17.47;9.90;;;8.00;94.90;;;;;;5086547;28;20201;-61
2023/12/25 09:10:28;;;;;;;16.57;9.03;;;8.20;94.90;;;;;;5085949;28;20273;-61
2023/12/25 09:12:55;;;;;;;18.13;8.73;;;8.30;94.80;;;;;;5080906;28;20228;-62
2023/12/25 09:15:22;;;;;;;19.37;9.30;;;8.40;94.70;;;;;;5092316;28;20764;-62
2023/12/25 09:17:50;;;;;;;13.87;7.83;;;8.60;94.70;;;;;;5080799;28;20270;-62
2023/12/25 09:20:17;;;;;;;20.27;9.27;;;8.70;94.50;;;;;;5081442;28;20205;-61
2023/12/25 09:22:44;;;;;;;12.77;8.30;;;8.80;94.30;;;;;;5087062;28;20198;-62
2023/12/25 09:25:12;;;;;;;13.27;8.47;;;8.90;94.10;;;;;;5084923;28;20217;-61
2023/12/25 09:27:39;;;;;;;17.43;8.43;;;9.10;94.10;;;;;;5088490;28;20212;-61
2023/12/25 09:30:08;;;;;;;14.23;8.03;;;9.20;94.00;;;;;;5080951;28;20195;-62
2023/12/25 09:32:35;;;;;;;19.67;8.77;;;9.30;93.90;;;;;;5079847;28;20203;-62
2023/12/25 09:35:03;;;;;;;17.70;9.20;;;9.40;93.80;;;;;;5082064;28;20266;-63
2023/12/25 09:37:30;;;;;;;19.70;8.93;;;9.50;93.70;;;;;;5074225;28;20194;-62
2023/12/25 09:39:57;;;;;;;13.97;8.17;;;9.60;93.60;;;;;;5079423;28;20199;-61
2023/12/25 09:42:24;;;;;;;14.70;8.50;;;9.70;93.40;;;;;;5085401;28;20206;-61
2023/12/25 09:44:54;;;;;;;16.80;8.87;;;9.80;93.30;;;;;;5082826;28;20200;-61
2023/12/25 09:47:22;;;;;;;18.17;8.37;;;9.90;93.10;;;;;;5080002;28;20289;-63
2023/12/25 09:49:51;;;;;;;17.67;8.80;;;10.00;93.00;;;;;;5092375;28;20204;-62
2023/12/25 09:52:20;;;;;;;16.87;9.27;;;10.10;92.80;;;;;;5082286;28;20644;-62
2023/12/25 09:54:47;;;;;;;18.23;8.33;;;10.20;92.70;;;;;;5081802;28;20687;-62
2023/12/25 09:57:16;;;;;;;15.33;8.30;;;10.30;92.70;;;;;;5085574;28;20212;-62
2023/12/25 09:59:43;;;;;;;16.70;8.97;;;10.40;92.60;;;;;;5074102;28;20208;-61
2023/12/25 10:02:13;;;;;;;16.67;8.00;;;10.50;92.60;;;;;;5080955;28;20274;-61
2023/12/25 10:04:42;;;;;;;11.20;7.20;;;10.60;92.50;;;;;;5080782;28;20300;-62
2023/12/25 10:07:09;;;;;;;13.50;7.27;;;10.70;92.40;;;;;;5082663;28;20200;-62
2023/12/25 10:09:38;;;;;;;20.83;7.40;;;10.80;92.30;;;;;;5081617;28;20205;-62
2023/12/25 10:12:06;;;;;;;14.43;8.17;;;10.90;92.30;;;;;;5084448;28;20642;-62
2023/12/25 10:14:34;;;;;;;15.87;7.43;;;10.90;92.30;;;;;;5082977;28;20217;-62
2023/12/25 10:17:02;;;;;;;19.13;8.90;;;11.10;92.00;;;;;;5081496;28;20209;-64
2023/12/25 10:19:29;;;;;;;16.67;8.00;;;11.10;92.10;;;;;;5077761;28;20441;-61
2023/12/25 10:21:56;;;;;;;17.37;7.57;;;11.20;91.70;;;;;;5086692;28;20226;-62
2023/12/25 10:24:26;;;;;;;12.10;6.87;;;11.30;91.60;;;;;;5083536;28;20220;-62
2023/12/25 10:26:57;;;;;;;20.20;8.10;;;11.40;91.50;;;;;;5079766;28;20213;-61
2023/12/25 10:29:37;;;;;;;13.10;7.00;;;11.40;91.30;;;;;;5088108;28;20300;-62
2023/12/25 10:32:18;;;;;;;17.10;7.70;;;11.60;91.20;;;;;;5081596;28;20203;-63
2023/12/25 10:34:45;;;;;;;14.93;7.30;;;11.70;91.10;;;;;;5083619;28;20652;-63
2023/12/25 10:37:15;;;;;;;20.63;7.80;;;11.70;91.00;;;;;;5081234;28;20228;-62
2023/12/25 10:39:42;;;;;;;15.57;7.40;;;11.70;90.90;;;;;;5081251;28;20528;-62
2023/12/25 10:42:12;;;;;;;15.90;8.07;;;11.80;90.80;;;;;;5081814;28;20199;-61
2023/12/25 10:44:44;;;;;;;15.53;7.50;;;11.90;90.70;;;;;;5085030;28;20188;-62
2023/12/25 10:47:13;;;;;;;16.07;8.27;;;12.00;90.60;;;;;;5081012;28;20193;-61
2023/12/25 10:49:42;;;;;;;14.80;8.77;;;12.10;90.60;;;;;;5084354;28;20222;-62
2023/12/25 10:52:10;;;;;;;14.87;8.90;;;12.20;90.80;;;;;;5077442;28;20477;-63
2023/12/25 10:54:43;;;;;;;16.10;8.20;;;12.20;90.40;;;;;;5081897;28;20208;-62
2023/12/25 10:57:10;;;;;;;18.43;9.50;;;12.30;90.30;;;;;;5081469;28;20251;-62
2023/12/25 10:59:41;;;;;;;23.03;9.93;;;12.40;90.30;;;;;;5083512;28;20196;-62
2023/12/25 11:02:13;;;;;;;16.93;8.10;;;12.50;90.10;;;;;;5080756;28;20247;-62
2023/12/25 11:04:42;;;;;;;20.20;9.50;;;12.60;90.10;;;;;;5078814;28;20196;-61
2023/12/25 11:07:12;;;;;;;20.47;9.57;;;12.70;90.00;;;;;;5079362;28;20204;-63
2023/12/25 11:09:41;;;;;;;19.63;10.50;;;12.70;89.70;;;;;;5081784;28;20253;-61
2023/12/25 11:12:10;;;;;;;16.13;9.73;;;12.80;89.60;;;;;;5081259;28;20216;-61
2023/12/25 11:14:37;;;;;;;21.33;10.30;;;12.90;89.60;;;;;;5084068;28;20304;-62
2023/12/25 11:17:04;;;;;;;17.43;9.27;;;13.00;89.00;;;;;;5083400;28;20222;-62
2023/12/25 11:19:32;;;;;;;23.43;10.57;;;13.10;88.60;;;;;;5081058;28;20194;-62
2023/12/25 11:22:17;;;;;;;14.37;9.50;;;13.20;88.30;;;;;;5085885;28;20196;-62
2023/12/25 11:24:44;;;;;;;20.83;10.87;;;13.30;88.10;;;;;;5094165;28;20203;-61
2023/12/25 11:27:11;;;;;;;25.20;12.33;;;13.40;87.90;;;;;;5086142;28;20213;-62
2023/12/25 11:29:38;;;;;;;24.10;10.63;;;13.50;87.80;;;;;;5086013;28;20200;-62
2023/12/25 11:32:11;;;;;;;23.10;11.77;;;13.60;87.90;;;;;;5083258;28;20638;-63
2023/12/25 11:34:43;;;;;;;19.53;11.17;;;13.70;87.80;;;;;;5081850;28;20198;-62
2023/12/25 11:37:20;;;;;;;20.97;10.63;;;13.80;87.80;;;;;;5085847;28;20737;-62
2023/12/25 11:40:13;;;;;;;17.67;10.00;;;13.90;87.70;;;;;;5080904;28;20563;-61
2023/12/25 11:42:41;;;;;;;21.10;10.50;;;14.00;87.50;;;;;;5081134;28;20612;-62
2023/12/25 11:45:09;;;;;;;16.33;10.33;;;14.10;87.30;;;;;;5084918;28;20210;-63
2023/12/25 11:47:48;;;;;;;17.17;9.97;;;14.20;87.10;;;;;;5085848;28;20215;-61
2023/12/25 11:50:15;;;;;;;21.20;9.60;;;14.30;86.70;;;;;;5086696;28;20523;-62
2023/12/25 11:52:47;;;;;;;15.97;9.93;;;14.40;85.90;;;;;;5087727;28;20197;-63
2023/12/25 11:55:19;;;;;;;18.93;9.73;;;14.40;85.50;;;;;;5078652;28;20558;-61
2023/12/25 11:57:47;;;;;;;23.33;9.70;;;14.50;85.70;;;;;;5081997;28;20213;-61
2023/12/25 12:00:20;;;;;;;19.90;10.83;;;14.70;85.00;;;;;;5087036;28;20215;-62
2023/12/25 12:02:49;;;;;;;17.70;10.53;;;14.70;84.50;;;;;;5085411;28;20228;-62
2023/12/25 12:05:16;;;;;;;20.67;9.53;;;14.80;84.60;;;;;;5085920;28;20197;-62
2023/12/25 12:07:44;;;;;;;22.53;10.70;;;14.80;84.40;;;;;;5080742;28;20210;-62
2023/12/25 12:10:12;;;;;;;22.57;9.70;;;14.90;83.90;;;;;;5083884;28;20672;-62
2023/12/25 12:12:41;;;;;;;19.73;9.33;;;15.00;83.90;;;;;;5082227;28;20219;-62
2023/12/25 12:15:09;;;;;;;18.93;9.23;;;15.00;83.60;;;;;;5085124;28;20212;-62
2023/12/25 12:17:36;;;;;;;18.93;8.40;;;15.10;83.60;;;;;;5082497;28;20220;-62
2023/12/25 12:20:04;;;;;;;15.73;7.77;;;15.10;82.80;;;;;;5083521;28;20200;-62
2023/12/25 12:22:35;;;;;;;21.57;9.03;;;15.20;82.60;;;;;;5094124;28;20486;-62
2023/12/25 12:25:19;;;;;;;22.90;8.73;;;15.20;82.20;;;;;;5083292;28;20191;-62
2023/12/25 12:27:46;;;;;;;18.00;6.47;;;15.20;82.20;;;;;;5081483;28;20199;-63
2023/12/25 12:30:13;;;;;;;17.60;8.17;;;15.30;81.60;;;;;;5079372;28;20275;-62
2023/12/25 12:32:44;;;;;;;20.07;9.47;;;15.30;81.30;;;;;;5080951;28;20205;-62
2023/12/25 12:35:11;;;;;;;19.70;9.43;;;15.30;81.50;;;;;;5081737;28;20205;-62
2023/12/25 12:37:38;;;;;;;28.07;10.60;;;15.30;81.80;;;;;;5085240;28;20229;-62
2023/12/25 12:40:06;;;;;;;17.87;10.83;;;15.30;81.80;;;;;;5078169;28;20254;-62
2023/12/25 12:42:42;;;;;;;22.50;10.37;;;15.40;81.60;;;;;;5082049;28;20279;-62